Aérodrome :
LOGIN :

S'inscrire | Disclaimer

   EN    FR    IT 

 










Légende :    VFR   VFR Marginal   IFR   IFR Intensif   IFR Très Intensif
Visi : 
Plafond : 
>= 8 km
>= 3000ft
5 à 8 km
1000 à 3000 ft
1500m à 5 km
500 à 1000 ft
800 à 1500m
200 à 500 ft
< 800m
< 200 ft
Symboles :   Orages  Brouillard  Fortes neiges  Fortes précipitations  Vent > 20 kt
SIGMETs :   Divers  Orages  Givrage  Turbulence  Onde Orograph.  Cendres Volcan.







- Altitude de l'aérodrome : 194 ft
- Code IATA : LME
- Voir les cartes d'approche


LFRM - Le Mans

DERNIER METAR :
  • 161700Z AUTO 23006KT 200V260 CAVOK 25/11 Q1019 NOSIG

METARs EXPIRÉS :
  • 161630Z AUTO 24005KT 190V310 CAVOK 26/10 Q1019 NOSIG
  • 161600Z AUTO 24005KT 180V300 CAVOK 26/09 Q1019 NOSIG
  • 161530Z AUTO 23006KT 190V280 CAVOK 26/10 Q1019 NOSIG
  • 161500Z AUTO 25007KT 200V290 CAVOK 26/11 Q1020 NOSIG
  • 161430Z AUTO 22006KT 170V290 9999 FEW042 26/11 Q1020 NOSIG

TAF TAF LFRM
Valide du 16 à 15h jusqu'au 17 à 00h UTC


161400Z 1615/1624 22004KT CAVOK
Pas de NOTAMs connus pour ce terrain.



MET'MAP, la Météo Aéronautique d'un coup d'oeil ! - Copyright ORBIFLY Décembre 2007 - Disclaimer

ORBIFLY MET'MAP TEAM :

Programmation & Développement : Alexandra Zaïnal
Conception & Développement : Baudouin d'Aumeries
Co-Programmation & Développement : Marc-Olivier Méhu
Soutien technique & logistique : Manuel Goepfert

Contact : metmap@orbifly.com




SOURCES & CREDITS :

   NOAA